createdAt,value
2018-08-09T00:00:03.345Z,14.53
2018-08-09T00:02:32.173Z,16.40
2018-08-09T00:05:00.784Z,16.42
2018-08-09T00:07:29.540Z,17.27
2018-08-09T00:09:57.987Z,17.63
2018-08-09T00:12:26.937Z,17.73
2018-08-09T00:14:55.632Z,18.53
2018-08-09T00:17:23.944Z,17.80
2018-08-09T00:19:52.429Z,16.47
2018-08-09T00:22:20.882Z,17.50
2018-08-09T00:24:49.409Z,16.60
2018-08-09T00:27:17.856Z,17.10
2018-08-09T00:29:45.972Z,16.90
2018-08-09T00:32:14.841Z,16.40
2018-08-09T00:34:43.587Z,15.20
2018-08-09T00:37:12.380Z,15.33
2018-08-09T00:39:41.393Z,14.98
2018-08-09T00:42:10.170Z,15.95
2018-08-09T00:44:39.085Z,17.12
2018-08-09T00:47:07.937Z,17.67
2018-08-09T00:49:36.385Z,17.57
2018-08-09T00:52:05.381Z,18.20
2018-08-09T00:54:33.525Z,17.93
2018-08-09T00:57:02.328Z,16.33
2018-08-09T00:59:31.020Z,17.05
2018-08-09T01:01:59.505Z,16.90
2018-08-09T01:04:27.923Z,17.62
2018-08-09T01:06:56.376Z,18.87
2018-08-09T01:09:24.833Z,18.63
2018-08-09T01:11:53.244Z,16.80
2018-08-09T01:14:21.730Z,17.30
2018-08-09T01:16:50.488Z,15.73
2018-08-09T01:19:18.932Z,16.70
2018-08-09T01:21:47.385Z,16.77
2018-08-09T01:24:15.877Z,16.57
2018-08-09T01:26:43.988Z,16.37
2018-08-09T01:29:12.149Z,16.40
2018-08-09T01:31:40.976Z,18.03
2018-08-09T01:34:10.304Z,17.20
2018-08-09T01:36:38.968Z,16.60
2018-08-09T01:39:10.234Z,18.03
2018-08-09T01:41:38.679Z,17.80
2018-08-09T01:44:08.001Z,17.13
2018-08-09T01:46:36.816Z,19.25
2018-08-09T01:49:05.118Z,17.40
2018-08-09T01:51:40.196Z,17.53
2018-08-09T01:54:08.648Z,17.57
2018-08-09T01:56:37.173Z,17.35
2018-08-09T01:59:05.309Z,19.20
2018-08-09T02:01:33.772Z,18.33
2018-08-09T02:04:02.875Z,18.60
2018-08-09T02:06:31.630Z,19.32
2018-08-09T02:09:05.040Z,19.37
2018-08-09T02:11:34.033Z,17.53
2018-08-09T02:14:02.657Z,19.00
2018-08-09T02:16:31.403Z,16.80
2018-08-09T02:18:59.968Z,19.70
2018-08-09T02:21:28.461Z,20.37
2018-08-09T02:23:56.594Z,20.53
2018-08-09T02:26:26.492Z,20.88
2018-08-09T02:28:54.964Z,20.23
2018-08-09T02:31:23.283Z,20.40
2018-08-09T02:33:57.053Z,20.10
2018-08-09T02:36:26.837Z,19.23
2018-08-09T02:38:55.581Z,19.67
2018-08-09T02:41:24.032Z,18.80
2018-08-09T02:43:52.320Z,19.10
2018-08-09T02:46:20.460Z,19.20
2018-08-09T02:48:49.021Z,21.47
2018-08-09T02:51:17.764Z,20.80
2018-08-09T02:53:46.562Z,21.00
2018-08-09T02:56:15.020Z,21.50
2018-08-09T02:58:43.604Z,20.77
2018-08-09T03:01:11.747Z,18.53
2018-08-09T03:03:40.585Z,18.95
2018-08-09T03:06:09.070Z,19.37
2018-08-09T03:08:37.481Z,20.23
2018-08-09T03:11:06.134Z,19.70
2018-08-09T03:13:34.552Z,18.70
2018-08-09T03:16:02.698Z,18.53
2018-08-09T03:18:31.515Z,20.17
2018-08-09T03:20:59.992Z,19.67
2018-08-09T03:23:28.406Z,20.47
2018-08-09T03:25:56.541Z,19.70
2018-08-09T03:28:24.680Z,19.43
2018-08-09T03:30:53.436Z,19.77
2018-08-09T03:33:21.904Z,19.37
2018-08-09T03:35:50.660Z,19.45
2018-08-09T03:38:19.410Z,20.13
2018-08-09T03:40:47.877Z,20.90
2018-08-09T03:43:16.617Z,21.23
2018-08-09T03:45:45.078Z,21.57
2018-08-09T03:48:13.978Z,21.10
2018-08-09T03:50:42.744Z,21.30
2018-08-09T03:53:11.200Z,21.03
2018-08-09T03:55:39.957Z,20.32
2018-08-09T03:58:08.525Z,20.00
2018-08-09T04:00:43.141Z,19.55
2018-08-09T04:03:11.920Z,20.77
2018-08-09T04:05:40.385Z,21.27
2018-08-09T04:08:09.101Z,20.40
2018-08-09T04:10:37.848Z,20.27
2018-08-09T04:13:06.508Z,20.87
2018-08-09T04:15:35.169Z,21.10
2018-08-09T04:18:03.573Z,21.97
2018-08-09T04:20:32.240Z,22.00
2018-08-09T04:23:01.104Z,21.00
2018-08-09T04:25:29.869Z,21.63
2018-08-09T04:27:58.482Z,22.53
2018-08-09T04:30:26.916Z,21.70
2018-08-09T04:32:55.404Z,21.30
2018-08-09T04:35:23.792Z,22.30
2018-08-09T04:37:52.289Z,20.87
2018-08-09T04:40:20.629Z,23.10
2018-08-09T04:42:49.086Z,22.97
2018-08-09T04:45:17.575Z,23.70
2018-08-09T04:47:45.744Z,23.23
2018-08-09T04:50:14.221Z,23.97
2018-08-09T04:52:43.041Z,19.70
2018-08-09T04:55:11.534Z,23.80
2018-08-09T04:57:40.168Z,24.67
2018-08-09T05:00:08.398Z,22.27
2018-08-09T05:02:37.070Z,22.77
2018-08-09T05:05:05.224Z,21.73
2018-08-09T05:07:33.621Z,23.35
2018-08-09T05:12:42.080Z,24.35
2018-08-09T05:15:11.676Z,26.30
2018-08-09T05:17:40.224Z,24.77
2018-08-09T05:20:08.655Z,24.95
2018-08-09T05:22:37.095Z,22.97
2018-08-09T05:25:05.924Z,24.97
2018-08-09T05:27:34.918Z,24.97
2018-08-09T05:30:03.617Z,25.60
2018-08-09T05:32:31.929Z,24.77
2018-08-09T05:35:00.054Z,23.83
2018-08-09T05:37:28.752Z,24.80
2018-08-09T05:39:57.204Z,24.80
2018-08-09T05:42:25.328Z,26.17
2018-08-09T05:44:53.724Z,26.50
2018-08-09T05:47:22.237Z,24.70
2018-08-09T05:49:50.939Z,24.80
2018-08-09T05:52:19.446Z,26.00
2018-08-09T05:54:47.689Z,24.90
2018-08-09T05:57:16.106Z,25.23
2018-08-09T05:59:44.236Z,25.37
2018-08-09T06:02:12.704Z,24.40
2018-08-09T06:04:41.107Z,27.57
2018-08-09T06:07:09.328Z,26.10
2018-08-09T06:09:38.410Z,26.52
2018-08-09T06:12:06.862Z,26.50
2018-08-09T06:14:35.105Z,26.23
2018-08-09T06:17:03.261Z,26.47
2018-08-09T06:19:31.857Z,26.60
2018-08-09T06:22:00.386Z,25.50
2018-08-09T06:24:29.724Z,24.15
2018-08-09T06:26:58.292Z,26.60
2018-08-09T06:29:27.418Z,25.90
2018-08-09T06:31:56.148Z,25.90
2018-08-09T06:34:24.761Z,22.58
2018-08-09T06:36:53.474Z,24.70
2018-08-09T06:39:21.975Z,25.10
2018-08-09T06:41:50.132Z,24.23
2018-08-09T06:44:18.584Z,22.70
2018-08-09T06:46:47.418Z,23.80
2018-08-09T06:49:15.873Z,24.60
2018-08-09T06:51:44.519Z,25.50
2018-08-09T06:54:12.673Z,25.17
2018-08-09T06:56:41.089Z,24.12
2018-08-09T06:59:10.213Z,23.03
2018-08-09T07:01:38.403Z,22.07
2018-08-09T07:04:07.149Z,23.47
2018-08-09T07:06:35.612Z,23.55
2018-08-09T07:09:06.641Z,24.33
2018-08-09T07:11:35.084Z,22.10
2018-08-09T07:14:03.241Z,22.87
2018-08-09T07:16:31.704Z,23.90
2018-08-09T07:18:59.957Z,22.20
2018-08-09T07:21:28.684Z,20.80
2018-08-09T07:23:57.637Z,22.00
2018-08-09T07:26:27.475Z,21.27
2018-08-09T07:28:56.032Z,20.97
2018-08-09T07:31:24.492Z,20.57
2018-08-09T07:33:52.990Z,21.50
2018-08-09T07:36:21.625Z,19.47
2018-08-09T07:38:50.072Z,17.80
2018-08-09T07:41:18.452Z,20.10
2018-08-09T07:43:46.601Z,19.67
2018-08-09T07:46:15.053Z,20.80
2018-08-09T07:48:43.536Z,18.43
2018-08-09T07:51:12.122Z,18.90
2018-08-09T07:53:40.609Z,19.00
2018-08-09T07:56:17.305Z,18.97
2018-08-09T07:58:45.874Z,19.27
2018-08-09T08:01:14.682Z,18.77
2018-08-09T08:03:43.341Z,16.97
2018-08-09T08:06:11.494Z,17.93
2018-08-09T08:08:40.185Z,17.50
2018-08-09T08:11:08.876Z,17.80
2018-08-09T08:13:37.654Z,16.67
2018-08-09T08:16:06.020Z,16.53
2018-08-09T08:18:34.672Z,17.70
2018-08-09T08:21:03.454Z,16.20
2018-08-09T08:23:32.086Z,15.72
2018-08-09T08:26:00.536Z,16.57
2018-08-09T08:28:29.841Z,15.00
2018-08-09T08:30:58.232Z,15.03
2018-08-09T08:33:27.853Z,15.20
2018-08-09T08:36:02.321Z,15.00
2018-08-09T08:38:30.532Z,13.73
2018-08-09T08:40:58.980Z,15.17
2018-08-09T08:43:27.532Z,16.00
2018-08-09T08:45:56.585Z,16.65
2018-08-09T08:48:24.713Z,16.90
2018-08-09T08:50:53.125Z,17.77
2018-08-09T08:53:21.554Z,17.23
2018-08-09T08:55:49.824Z,16.60
2018-08-09T08:58:18.256Z,18.20
2018-08-09T09:00:46.391Z,19.17
2018-08-09T09:03:15.178Z,18.60
2018-08-09T09:05:43.760Z,19.27
2018-08-09T09:08:12.243Z,18.63
2018-08-09T09:10:40.793Z,18.53
2018-08-09T09:13:09.501Z,18.30
2018-08-09T09:15:37.615Z,18.12
2018-08-09T09:18:06.279Z,18.33
2018-08-09T09:20:34.861Z,18.60
2018-08-09T09:23:03.846Z,18.00
2018-08-09T09:25:33.188Z,19.48
2018-08-09T09:28:01.668Z,18.70
2018-08-09T09:30:30.320Z,19.40
2018-08-09T09:32:58.452Z,20.90
2018-08-09T09:35:28.070Z,20.08
2018-08-09T09:37:56.228Z,20.07
2018-08-09T09:40:24.346Z,19.90
2018-08-09T09:42:52.660Z,20.97
2018-08-09T09:45:21.113Z,20.57
2018-08-09T09:47:49.403Z,20.27
2018-08-09T09:50:17.762Z,20.63
2018-08-09T09:52:45.891Z,21.67
2018-08-09T09:55:14.673Z,22.67
2018-08-09T09:57:42.800Z,21.37
2018-08-09T10:00:16.384Z,23.70
2018-08-09T10:02:45.608Z,22.73
2018-08-09T10:05:14.284Z,23.60
2018-08-09T10:07:43.027Z,24.27
2018-08-09T10:10:12.473Z,24.37
2018-08-09T10:12:42.468Z,24.53
2018-08-09T10:15:10.798Z,25.17
2018-08-09T10:17:39.252Z,24.97
2018-08-09T10:20:08.154Z,25.53
2018-08-09T10:22:36.884Z,24.47
2018-08-09T10:25:05.808Z,22.67
2018-08-09T10:27:34.266Z,24.77
2018-08-09T10:32:36.592Z,25.30
2018-08-09T10:35:04.720Z,24.30
2018-08-09T10:37:33.419Z,28.47
2018-08-09T10:40:01.864Z,27.10
2018-08-09T10:42:30.226Z,28.30
2018-08-09T10:44:59.253Z,27.93
2018-08-09T10:47:27.816Z,29.90
2018-08-09T10:49:56.516Z,32.57
2018-08-09T10:52:24.698Z,30.60
2018-08-09T10:54:53.190Z,31.87
2018-08-09T10:57:22.445Z,31.83
2018-08-09T10:59:50.795Z,34.27
2018-08-09T11:02:18.978Z,32.37
2018-08-09T11:04:47.108Z,33.03
2018-08-09T11:07:15.875Z,31.70
2018-08-09T11:09:44.277Z,28.00
2018-08-09T11:12:13.081Z,30.93
2018-08-09T11:14:41.556Z,28.17
2018-08-09T11:17:09.672Z,28.37
2018-08-09T11:19:37.811Z,26.70
2018-08-09T11:22:06.644Z,29.00
2018-08-09T11:24:35.077Z,28.17
2018-08-09T11:27:03.881Z,28.47
2018-08-09T11:29:34.306Z,27.63
2018-08-09T11:32:02.734Z,26.97
2018-08-09T11:34:30.861Z,28.97
2018-08-09T11:36:59.212Z,27.20
2018-08-09T11:39:28.008Z,29.25
2018-08-09T11:41:56.452Z,28.20
2018-08-09T11:44:25.030Z,27.60
2018-08-09T11:46:53.177Z,27.20
2018-08-09T11:49:22.202Z,26.90
2018-08-09T11:51:51.552Z,21.73
2018-08-09T11:54:20.168Z,25.90
2018-08-09T11:56:48.565Z,26.30
2018-08-09T11:59:16.865Z,24.93
2018-08-09T12:01:45.200Z,23.70
2018-08-09T12:04:14.025Z,24.93
2018-08-09T12:06:42.537Z,21.00
2018-08-09T12:09:12.029Z,22.63
2018-08-09T12:11:40.299Z,22.33
2018-08-09T12:14:09.106Z,22.53
2018-08-09T12:16:37.990Z,21.93
2018-08-09T12:19:07.103Z,20.27
2018-08-09T12:21:36.394Z,21.15
2018-08-09T12:24:04.804Z,20.73
2018-08-09T12:26:33.099Z,18.70
2018-08-09T12:29:01.564Z,18.40
2018-08-09T12:31:30.001Z,19.10
2018-08-09T12:33:58.116Z,19.53
2018-08-09T12:37:31.344Z,19.73
2018-08-09T12:39:59.723Z,19.43
2018-08-09T12:42:27.864Z,16.70
2018-08-09T12:44:55.996Z,18.60
2018-08-09T12:47:24.463Z,17.63
2018-08-09T12:49:53.197Z,19.23
2018-08-09T12:52:21.357Z,19.70
2018-08-09T12:54:49.494Z,17.10
2018-08-09T12:57:17.641Z,18.07
2018-08-09T12:59:46.009Z,14.90
2018-08-09T13:02:14.171Z,17.70
2018-08-09T13:04:42.620Z,15.27
2018-08-09T13:07:11.112Z,14.63
2018-08-09T13:09:39.241Z,14.40
2018-08-09T13:12:07.609Z,14.93
2018-08-09T13:14:35.980Z,15.20
2018-08-09T13:17:04.174Z,14.47
2018-08-09T13:19:32.309Z,14.70
2018-08-09T13:22:00.671Z,11.63
2018-08-09T13:24:28.806Z,14.40
2018-08-09T13:26:57.221Z,14.47
2018-08-09T13:29:25.685Z,13.80
2018-08-09T13:31:53.836Z,12.60
2018-08-09T13:34:22.321Z,12.83
2018-08-09T13:36:50.461Z,13.90
2018-08-09T13:39:18.600Z,11.73
2018-08-09T13:41:46.985Z,11.30
2018-08-09T13:44:15.370Z,11.63
2018-08-09T13:46:43.540Z,11.10
2018-08-09T13:49:12.109Z,11.70
2018-08-09T13:51:40.267Z,11.00
2018-08-09T13:54:08.681Z,11.80
2018-08-09T13:56:36.832Z,11.77
2018-08-09T13:59:05.002Z,10.00
2018-08-09T14:01:33.241Z,11.17
2018-08-09T14:04:02.008Z,9.13
2018-08-09T14:06:31.007Z,11.00
2018-08-09T14:08:59.496Z,10.40
2018-08-09T14:11:27.940Z,10.93
2018-08-09T14:13:56.416Z,11.50
2018-08-09T14:16:24.561Z,11.27
2018-08-09T14:18:53.249Z,10.30
2018-08-09T14:21:21.377Z,11.13
2018-08-09T14:23:49.717Z,11.00
2018-08-09T14:26:18.434Z,11.03
2018-08-09T14:28:47.118Z,11.27
2018-08-09T14:31:15.272Z,10.80
2018-08-09T14:33:43.394Z,8.50
2018-08-09T14:36:11.884Z,10.97
2018-08-09T14:38:40.626Z,10.57
2018-08-09T14:41:09.149Z,10.67
2018-08-09T14:43:37.276Z,9.43
2018-08-09T14:46:05.501Z,11.10
2018-08-09T14:48:34.209Z,11.43
2018-08-09T14:51:02.541Z,10.37
2018-08-09T14:53:31.021Z,10.20
2018-08-09T14:55:59.404Z,9.67
2018-08-09T14:58:27.796Z,9.67
2018-08-09T15:00:55.958Z,9.37
2018-08-09T15:03:24.341Z,11.77
2018-08-09T15:05:52.802Z,8.87
2018-08-09T15:08:21.281Z,10.63
2018-08-09T15:10:49.660Z,9.23
2018-08-09T15:13:18.059Z,10.23
2018-08-09T15:15:46.754Z,10.43
2018-08-09T15:18:15.121Z,10.27
2018-08-09T15:23:26.859Z,10.00
2018-08-09T15:25:55.388Z,11.00
2018-08-09T15:28:23.751Z,4.90
2018-08-09T15:30:51.892Z,4.70
2018-08-09T15:33:20.433Z,5.33
2018-08-09T15:35:48.553Z,6.13
2018-08-09T15:38:17.359Z,6.00
2018-08-09T15:40:45.904Z,7.70
2018-08-09T15:43:14.036Z,9.03
2018-08-09T15:45:42.149Z,8.80
2018-08-09T15:48:10.293Z,7.90
2018-08-09T15:50:39.072Z,8.93
2018-08-09T15:53:07.408Z,9.00
2018-08-09T15:55:35.777Z,8.67
2018-08-09T15:58:04.193Z,8.30
2018-08-09T16:00:32.668Z,9.07
2018-08-09T16:03:00.802Z,10.17
2018-08-09T16:05:29.181Z,7.90
2018-08-09T16:07:57.329Z,8.83
2018-08-09T16:10:25.684Z,8.47
2018-08-09T16:12:54.756Z,7.50
2018-08-09T16:15:23.116Z,8.50
2018-08-09T16:17:51.244Z,6.87
2018-08-09T16:20:19.367Z,6.83
2018-08-09T16:22:47.740Z,7.60
2018-08-09T16:25:17.339Z,6.50
2018-08-09T16:27:45.553Z,7.03
2018-08-09T16:30:18.875Z,7.33
2018-08-09T16:32:47.229Z,6.73
2018-08-09T16:35:15.383Z,6.83
2018-08-09T16:37:44.177Z,5.57
2018-08-09T16:40:17.060Z,5.77
2018-08-09T16:42:45.175Z,5.90
2018-08-09T16:45:14.826Z,5.80
2018-08-09T16:47:43.130Z,5.27
2018-08-09T16:50:13.356Z,5.27
2018-08-09T16:52:41.484Z,4.80
2018-08-09T16:55:11.312Z,5.77
2018-08-09T16:57:39.441Z,5.90
2018-08-09T17:00:10.171Z,5.50
2018-08-09T17:02:39.121Z,6.50
2018-08-09T17:05:11.023Z,6.00
2018-08-09T17:07:39.697Z,5.03
2018-08-09T17:10:08.833Z,4.93
2018-08-09T17:12:37.568Z,4.70
2018-08-09T17:15:08.564Z,4.07
2018-08-09T17:17:36.764Z,5.40
2018-08-09T17:20:08.032Z,5.30
2018-08-09T17:22:36.404Z,5.30
2018-08-09T17:25:04.968Z,5.20
2018-08-09T17:27:33.784Z,5.13
2018-08-09T17:30:02.144Z,5.10
2018-08-09T17:32:30.812Z,4.07
2018-08-09T17:34:58.936Z,5.00
2018-08-09T17:37:27.432Z,4.20
2018-08-09T17:39:55.760Z,4.53
2018-08-09T17:42:24.435Z,4.40
2018-08-09T17:44:52.556Z,4.40
2018-08-09T17:47:20.911Z,4.50
2018-08-09T17:49:49.432Z,3.80
2018-08-09T17:52:17.661Z,4.67
2018-08-09T17:54:46.164Z,4.10
2018-08-09T17:57:14.853Z,4.50
2018-08-09T17:59:42.967Z,4.17
2018-08-09T18:02:11.318Z,4.17
2018-08-09T18:04:39.950Z,4.07
2018-08-09T18:07:08.265Z,4.03
2018-08-09T18:09:36.989Z,4.10
2018-08-09T18:12:05.327Z,4.00
2018-08-09T18:14:33.780Z,3.47
2018-08-09T18:17:02.225Z,4.00
2018-08-09T18:19:30.693Z,4.47
2018-08-09T18:21:59.157Z,4.10
2018-08-09T18:24:27.844Z,4.40
2018-08-09T18:26:56.185Z,4.13
2018-08-09T18:29:24.525Z,4.07
2018-08-09T18:31:52.680Z,4.40
2018-08-09T18:34:21.317Z,4.27
2018-08-09T18:36:49.448Z,4.10
2018-08-09T18:39:17.567Z,3.70
2018-08-09T18:41:46.097Z,4.00
2018-08-09T18:44:14.784Z,4.63
2018-08-09T18:46:42.901Z,4.37
2018-08-09T18:49:11.592Z,4.43
2018-08-09T18:51:39.996Z,4.63
2018-08-09T18:54:08.368Z,4.40
2018-08-09T18:56:36.492Z,4.13
2018-08-09T18:59:04.840Z,4.07
2018-08-09T19:01:32.964Z,4.80
2018-08-09T19:04:01.263Z,4.50
2018-08-09T19:06:29.593Z,4.53
2018-08-09T19:08:58.279Z,4.40
2018-08-09T19:11:27.033Z,4.47
2018-08-09T19:13:55.677Z,4.70
2018-08-09T19:16:23.838Z,4.30
2018-08-09T19:18:52.272Z,4.80
2018-08-09T19:21:20.385Z,4.60
2018-08-09T19:23:48.491Z,4.40
2018-08-09T19:26:16.796Z,4.93
2018-08-09T19:28:44.896Z,4.70
2018-08-09T19:31:13.234Z,4.40
2018-08-09T19:33:41.361Z,5.00
2018-08-09T19:36:09.712Z,5.23
2018-08-09T19:38:38.001Z,5.00
2018-08-09T19:41:06.708Z,3.50
2018-08-09T19:43:35.388Z,5.07
2018-08-09T19:46:03.827Z,4.00
2018-08-09T19:48:32.585Z,3.63
2018-08-09T19:51:00.949Z,4.90
2018-08-09T19:53:29.612Z,4.10
2018-08-09T19:55:57.796Z,3.90
2018-08-09T19:58:26.460Z,3.83
2018-08-09T20:00:54.579Z,4.10
2018-08-09T20:03:22.693Z,3.70
2018-08-09T20:05:50.859Z,4.57
2018-08-09T20:08:19.539Z,3.77
2018-08-09T20:10:47.992Z,3.33
2018-08-09T20:13:16.667Z,3.00
2018-08-09T20:15:44.784Z,3.80
2018-08-09T20:18:12.887Z,3.50
2018-08-09T20:20:41.043Z,3.20
2018-08-09T20:23:09.149Z,3.97
2018-08-09T20:25:37.497Z,3.93
2018-08-09T20:28:06.028Z,3.70
2018-08-09T20:30:34.147Z,3.40
2018-08-09T20:33:02.603Z,3.80
2018-08-09T20:35:31.217Z,3.30
2018-08-09T20:37:59.535Z,3.87
2018-08-09T20:40:28.341Z,2.60
2018-08-09T20:42:56.682Z,2.97
2018-08-09T20:45:25.256Z,4.63
2018-08-09T20:47:53.683Z,5.03
2018-08-09T20:50:23.744Z,8.30
2018-08-09T20:52:52.116Z,8.50
2018-08-09T20:55:20.448Z,10.20
2018-08-09T20:57:49.493Z,10.20
2018-08-09T21:00:19.961Z,10.03
2018-08-09T21:02:49.289Z,9.50
2018-08-09T21:05:22.480Z,9.07
2018-08-09T21:07:52.057Z,7.40
2018-08-09T21:10:20.173Z,7.50
2018-08-09T21:12:48.514Z,6.93
2018-08-09T21:15:17.811Z,6.90
2018-08-09T21:17:46.371Z,7.53
2018-08-09T21:20:18.055Z,5.90
2018-08-09T21:22:47.245Z,5.40
2018-08-09T21:25:15.708Z,5.30
2018-08-09T21:27:44.998Z,5.20
2018-08-09T21:30:17.485Z,4.73
2018-08-09T21:32:46.341Z,4.80
2018-08-09T21:35:14.756Z,5.17
2018-08-09T21:37:43.751Z,3.87
2018-08-09T21:40:13.184Z,3.87
2018-08-09T21:42:41.541Z,4.07
2018-08-09T21:45:13.267Z,3.87
2018-08-09T21:47:41.771Z,4.27
2018-08-09T21:50:11.991Z,4.30
2018-08-09T21:52:40.238Z,5.10
2018-08-09T21:55:09.021Z,5.80
2018-08-09T21:57:37.180Z,5.00
2018-08-09T22:00:08.498Z,5.00
2018-08-09T22:02:36.961Z,4.90
2018-08-09T22:05:10.445Z,5.40
2018-08-09T22:07:43.988Z,5.43
2018-08-09T22:10:19.722Z,6.07
2018-08-09T22:12:53.701Z,5.50
2018-08-09T22:15:27.432Z,5.37
2018-08-09T22:18:01.272Z,5.67
2018-08-09T22:20:35.304Z,4.60
2018-08-09T22:23:03.665Z,4.77
2018-08-09T22:25:32.022Z,4.80
2018-08-09T22:28:00.325Z,4.80
2018-08-09T22:30:28.437Z,4.87
2018-08-09T22:32:56.943Z,4.30
2018-08-09T22:35:25.069Z,4.13
2018-08-09T22:37:53.533Z,3.93
2018-08-09T22:40:21.901Z,4.00
2018-08-09T22:42:50.054Z,4.00
2018-08-09T22:45:18.419Z,3.37
2018-08-09T22:47:46.812Z,3.43
2018-08-09T22:50:15.264Z,3.67
2018-08-09T22:52:43.412Z,3.97
2018-08-09T22:55:11.797Z,3.27
2018-08-09T22:57:39.926Z,3.30
2018-08-09T23:00:15.304Z,3.10
2018-08-09T23:02:43.833Z,2.80
2018-08-09T23:05:11.968Z,3.60
2018-08-09T23:07:40.297Z,3.10
2018-08-09T23:10:08.777Z,3.63
2018-08-09T23:12:37.503Z,3.53
2018-08-09T23:15:06.412Z,3.00
2018-08-09T23:17:35.132Z,3.23
2018-08-09T23:20:03.265Z,3.30
2018-08-09T23:22:31.412Z,3.50
2018-08-09T23:24:59.914Z,3.90
2018-08-09T23:27:28.291Z,3.53
2018-08-09T23:29:56.751Z,4.10
2018-08-09T23:32:24.908Z,4.30
2018-08-09T23:34:53.334Z,4.03
2018-08-09T23:37:21.703Z,4.27
2018-08-09T23:39:50.344Z,3.60
2018-08-09T23:42:19.038Z,4.30
2018-08-09T23:44:47.456Z,4.00
2018-08-09T23:47:15.756Z,3.13
2018-08-09T23:49:44.202Z,2.40
2018-08-09T23:52:12.352Z,2.50
2018-08-09T23:54:40.480Z,2.07
2018-08-09T23:57:09.197Z,2.30
2018-08-09T23:59:37.650Z,1.60
